Latest Weather Observations for Laverton

IDW60801

Issued at 2:35 am WST Sunday 26 October 2014 (issued every 30 minutes, with the page automatically refreshed every 10 minutes)

About weather observations | Map of weather stations | Latest weather observations for WA | Other Formats
Station Details ID: 012305 Name: LAVERTON AERO Lat: -28.61 Lon: 122.42 Height: 464.3 m
Data from the previous 72 hours. | See also: Recent months at Laverton
Date/Time
WST
Temp
°C
App
Temp
°C
Dew
Point
Rel
Hum
%
Delta-T
°C
Wind Press
QNH
hPa
Press
MSL
hPa
Rain
since 9 am
mm
Dir
 
Spd
km/h
Gust
km/h
Spd
kts
Gust
kts
26/02:30am 22.2 17.4 5.6 34 8.5 SSW 20 28 11 15 1016.5 1014.5 0.0
26/02:00am 22.8 18.1 5.3 32 8.9 SSW 19 22 10 12 1016.1 1014.2 0.0
26/01:30am 23.1 18.5 5.5 32 9.1 SSW 19 24 10 13 1016.0 1014.1 0.0
26/01:00am 23.7 19.1 5.6 31 9.4 SSW 19 26 10 14 1016.0 1014.1 0.0
26/12:30am 24.3 19.7 5.6 30 9.7 S 19 26 10 14 1015.8 1013.9 0.0
26/12:00am 24.9 20.2 5.2 28 10.2 SSW 19 24 10 13 1015.9 1014.0 0.0
 
Date/Time
WST
Temp
°C
App
Temp
°C
Dew
Point
Rel
Hum
%
Delta-T
°C
Wind Press
QNH
hPa
Press
MSL
hPa
Rain
since 9 am
mm
Dir
 
Spd
km/h
Gust
km/h
Spd
kts
Gust
kts
25/11:30pm 25.9 20.9 4.4 25 11.0 SSW 20 32 11 17 1015.9 1014.0 0.0
25/11:00pm 26.6 21.3 3.2 22 11.8 SW 20 32 11 17 1015.7 1013.8 0.0
25/10:30pm 27.0 21.9 0.7 18 12.7 WSW 17 20 9 11 1015.5 1013.6 0.0
25/10:00pm 27.7 22.6 0.5 17 13.2 WSW 17 22 9 12 1015.4 1013.5 0.0
25/09:30pm 28.3 23.1 0.1 16 13.6 WSW 17 22 9 12 1015.2 1013.3 0.0
25/09:00pm 28.9 23.8 0.6 16 13.8 SW 17 22 9 12 1015.2 1013.3 0.0
25/08:30pm 29.4 25.0 0.1 15 14.3 SW 13 17 7 9 1015.0 1013.0 0.0
25/08:00pm 29.8 25.3 -0.5 14 14.6 WSW 13 15 7 8 1014.7 1012.7 0.0
25/07:30pm 30.7 25.8 -0.8 13 15.2 WSW 15 19 8 10 1014.3 1012.3 0.0
25/07:00pm 32.1 26.0 -2.0 11 16.3 WSW 20 24 11 13 1013.9 1012.0 0.0
25/06:30pm 32.9 27.1 -1.4 11 16.7 WSW 19 28 10 15 1013.4 1011.5 0.0
25/06:00pm 34.1 27.5 -3.2 9 17.8 WSW 22 32 12 17 1012.8 1010.8 0.0
25/05:30pm 35.6 27.8 -3.7 8 18.7 W 28 43 15 23 1012.3 1010.3 0.0
25/05:00pm 36.3 28.0 -5.0 7 19.4 W 30 43 16 23 1012.0 1010.0 0.0
25/04:49pm 36.5 27.6 -4.8 7 19.5 W 33 52 18 28 1011.7 1009.8 0.0
25/04:30pm 36.9 27.3 -4.5 7 19.7 W 37 52 20 28 1011.7 1009.8 0.0
25/04:00pm 37.7 29.5 -3.9 7 20.1 W 30 39 16 21 1011.6 1009.7 0.0
25/03:46pm 37.9 29.3 -3.8 7 20.2 WNW 32 50 17 27 1011.4 1009.5 0.0
25/03:30pm 38.0 29.5 -1.9 8 19.9 WNW 33 48 18 26 1011.4 1009.5 0.0
25/03:00pm 38.2 28.6 -1.8 8 20.0 WNW 39 52 21 28 1011.5 1009.6 0.0
25/02:58pm 38.2 28.6 -1.8 8 20.0 WNW 39 48 21 26 1011.5 1009.6 0.0
25/02:55pm 38.1 30.2 -1.9 8 20.0 NW 30 33 16 18 1011.5 1009.6 0.0
25/02:30pm 38.6 28.6 -1.5 8 20.2 WNW 41 50 22 27 1011.5 1009.6 0.0
25/02:04pm 38.5 30.2 -1.6 8 20.1 NW 32 50 17 27 1011.8 1009.9 0.0
25/02:00pm 38.4 29.9 -1.6 8 20.1 NW 33 46 18 25 1012.0 1010.0 0.0
25/01:30pm 37.9 29.4 -2.0 8 19.8 WNW 33 54 18 29 1012.3 1010.3 0.0
25/01:00pm 38.0 29.5 -1.9 8 19.9 WNW 33 52 18 28 1012.7 1010.7 0.0
25/12:44pm 38.4 30.1 -1.6 8 20.1 NW 32 50 17 27 1012.9 1010.9 0.0
25/12:30pm 38.2 29.9 -1.8 8 20.0 WNW 32 44 17 24 1012.9 1010.9 0.0
25/12:00pm 37.1 29.3 -1.0 9 19.2 WNW 30 43 16 23 1013.0 1011.0 0.0
25/11:37am 37.8 29.7 -0.5 9 19.5 WNW 32 56 17 30 1013.2 1011.3 0.0
25/11:30am 36.9 28.5 -1.1 9 19.1 NW 33 43 18 23 1013.5 1011.6 0.0
25/11:00am 36.9 29.1 -1.1 9 19.1 WNW 30 41 16 22 1013.7 1011.8 0.0
25/10:30am 36.3 29.2 -1.6 9 18.8 W 26 35 14 19 1014.0 1012.1 0.0
25/10:00am 35.9 28.3 -1.9 9 18.6 W 28 39 15 21 1014.4 1012.4 0.0
25/09:30am 35.4 28.7 1.7 12 17.5 WNW 26 39 14 21 1014.7 1012.7 0.0
25/09:00am 34.6 28.8 4.2 15 16.3 NW 24 32 13 17 1014.8 1012.8 0.0
25/08:30am 33.3 29.3 6.6 19 14.8 NW 17 26 9 14 1015.0 1013.0 0.0
25/08:00am 31.6 27.8 9.2 25 12.8 N 19 26 10 14 1015.0 1013.0 0.0
25/07:30am 30.1 26.9 10.1 29 11.6 N 17 24 9 13 1014.9 1012.9 0.0
25/07:00am 28.2 24.6 10.4 33 10.2 N 20 28 11 15 1014.7 1012.7 0.0
25/06:30am 26.9 23.1 9.7 34 9.7 NNE 20 28 11 15 1014.6 1012.6 0.0
25/06:00am 25.3 21.6 10.0 38 8.6 NNE 20 26 11 14 1014.5 1012.5 0.0
25/05:30am 24.6 21.0 9.7 39 8.3 NNE 19 26 10 14 1014.3 1012.3 0.0
25/05:00am 24.6 20.8 9.7 39 8.3 NNE 20 26 11 14 1013.9 1012.0 0.0
25/04:30am 24.5 21.2 9.6 39 8.3 NNE 17 24 9 13 1013.9 1012.0 0.0
25/04:00am 24.7 21.7 9.4 38 8.5 NE 15 20 8 11 1013.7 1011.8 0.0
25/03:30am 24.7 21.0 9.4 38 8.5 NNE 19 24 10 13 1013.6 1011.7 0.0
25/03:00am 25.2 21.2 9.1 36 8.9 NE 20 30 11 16 1013.7 1011.8 0.0
25/02:30am 25.2 21.1 8.7 35 9.1 NE 20 28 11 15 1013.5 1011.6 0.0
25/02:00am 25.2 20.7 8.7 35 9.1 NE 22 28 12 15 1013.6 1011.7 0.0
25/01:30am 25.0 21.4 8.5 35 9.1 NE 17 22 9 12 1013.6 1011.7 0.0
25/01:00am 24.8 21.9 8.3 35 9.0 ENE 13 19 7 10 1013.8 1011.9 0.0
25/12:30am 25.2 22.3 8.2 34 9.3 ENE 13 17 7 9 1014.2 1012.2 0.0
25/12:00am 25.4 22.1 8.0 33 9.5 E 15 19 8 10 1014.3 1012.3 0.0
 
Date/Time
WST
Temp
°C
App
Temp
°C
Dew
Point
Rel
Hum
%
Delta-T
°C
Wind Press
QNH
hPa
Press
MSL
hPa
Rain
since 9 am
mm
Dir
 
Spd
km/h
Gust
km/h
Spd
kts
Gust
kts
24/11:30pm 25.5 22.6 8.1 33 9.5 E 13 17 7 9 1014.6 1012.6 0.0
24/11:00pm 24.5 21.7 8.5 36 8.8 E 13 13 7 7 1015.0 1013.0 0.0
24/10:30pm 25.0 22.1 8.1 34 9.2 E 13 15 7 8 1015.4 1013.5 0.0
24/10:00pm 25.4 23.2 8.0 33 9.5 ENE 9 13 5 7 1015.5 1013.6 0.0
24/09:30pm 27.3 23.8 7.2 28 10.9 ESE 15 19 8 10 1015.3 1013.4 0.0
24/09:00pm 27.9 25.2 7.2 27 11.3 SE 11 17 6 9 1015.3 1013.4 0.0
24/08:30pm 28.5 25.0 7.1 26 11.7 SE 15 19 8 10 1015.2 1013.3 0.0
24/08:00pm 28.8 25.7 7.4 26 11.8 SE 13 19 7 10 1014.7 1012.7 0.0
24/07:30pm 29.4 26.3 7.3 25 12.2 SSE 13 15 7 8 1014.4 1012.4 0.0
24/07:00pm 30.7 27.1 6.6 22 13.2 S 15 20 8 11 1014.0 1012.1 0.0
24/06:30pm 32.0 29.3 5.5 19 14.4 SW 9 11 5 6 1013.7 1011.8 0.0
24/06:00pm 32.8 29.5 4.6 17 15.1 WSW 11 17 6 9 1013.3 1011.4 0.0
24/05:30pm 33.6 29.7 3.4 15 16.0 SW 13 19 7 10 1013.1 1011.1 0.0
24/05:00pm 33.8 30.1 4.5 16 15.8 WSW 13 20 7 11 1013.1 1011.1 0.0
24/04:30pm 34.5 30.4 4.1 15 16.3 WSW 15 22 8 12 1013.0 1011.0 0.0
24/04:00pm 34.7 30.8 3.3 14 16.7 WNW 13 24 7 13 1013.1 1011.1 0.0
24/03:30pm 34.3 30.7 3.0 14 16.5 WNW 11 19 6 10 1013.3 1011.4 0.0
24/03:00pm 34.3 29.4 4.0 15 16.2 N 19 20 10 11 1013.7 1011.8 0.0
24/02:30pm 33.6 30.6 4.3 16 15.7 NNW 9 17 5 9 1013.9 1012.0 0.0
24/02:00pm 32.9 29.1 3.8 16 15.4 NE 13 19 7 10 1014.5 1012.5 0.0
24/01:30pm 32.8 29.9 4.6 17 15.1 WNW 9 28 5 15 1015.0 1013.0 0.0
24/01:00pm 32.4 29.7 5.8 19 14.5 NW 9 19 5 10 1015.3 1013.4 0.0
24/12:30pm 31.5 27.3 5.8 20 14.0 ESE 17 26 9 14 1015.7 1013.8 0.0
24/12:00pm 30.6 27.3 6.5 22 13.2 E 13 20 7 11 1016.3 1014.4 0.0
24/11:30am 30.0 27.1 6.6 23 12.8 ENE 11 17 6 9 1016.9 1014.9 0.0
24/11:00am 29.9 25.9 6.5 23 12.7 NNE 17 20 9 11 1017.2 1015.3 0.0
24/10:30am 28.2 24.6 6.9 26 11.6 ENE 15 26 8 14 1017.5 1015.6 0.0
24/10:00am 27.5 22.7 7.4 28 11.0 E 22 30 12 16 1017.9 1016.0 0.0
24/09:30am 27.4 22.5 6.8 27 11.1 E 22 32 12 17 1018.0 1016.1 0.0
24/09:00am 26.5 21.0 6.0 27 10.8 E 24 32 13 17 1018.0 1016.1 0.0
24/08:30am 25.9 21.1 5.5 27 10.7 E 20 26 11 14 1017.9 1016.0 0.0
24/08:00am 24.7 20.0 5.0 28 10.1 ESE 19 22 10 12 1017.8 1015.9 0.0
24/07:30am 23.8 18.9 5.2 30 9.6 E 20 24 11 13 1017.5 1015.6 0.0
24/07:00am 22.5 17.3 5.4 33 8.7 ESE 22 28 12 15 1017.4 1015.5 0.0
24/06:30am 21.4 16.7 5.3 35 8.2 ESE 19 24 10 13 1017.2 1015.3 0.0
24/06:00am 18.5 15.7 7.0 47 5.9 SE 11 15 6 8 1017.0 1015.1 0.0
24/05:30am 16.7 14.3 7.1 53 4.9 SE 9 11 5 6 1016.9 1014.9 0.0
24/05:00am 16.5 13.4 7.4 55 4.7 SSE 13 15 7 8 1016.7 1014.7 0.0
24/04:30am 16.8 14.1 7.4 54 4.8 S 11 13 6 7 1016.3 1014.4 0.0
24/04:00am 17.5 14.7 7.0 50 5.4 ESE 11 13 6 7 1016.3 1014.4 0.0
24/03:30am 17.5 14.5 7.5 52 5.2 E 13 15 7 8 1016.3 1014.4 0.0
24/03:00am 18.2 15.9 7.3 49 5.6 SSE 9 11 5 6 1015.8 1013.9 0.0
24/02:30am 19.1 16.3 6.9 45 6.3 SSE 11 15 6 8 1015.7 1013.8 0.0
24/02:00am 19.2 16.5 7.3 46 6.2 SSE 11 15 6 8 1015.6 1013.7 0.0
24/01:30am 19.1 16.9 7.8 48 5.9 S 9 11 5 6 1015.7 1013.8 0.0
24/01:00am 19.0 16.9 8.1 49 5.7 SSE 9 11 5 6 1015.8 1013.9 0.0
24/12:30am 19.6 17.7 7.7 46 6.2 SE 7 9 4 5 1015.9 1014.0 0.0
24/12:00am 20.2 17.9 7.6 44 6.6 SSE 9 11 5 6 1016.1 1014.2 0.0
 
Date/Time
WST
Temp
°C
App
Temp
°C
Dew
Point
Rel
Hum
%
Delta-T
°C
Wind Press
QNH
hPa
Press
MSL
hPa
Rain
since 9 am
mm
Dir
 
Spd
km/h
Gust
km/h
Spd
kts
Gust
kts
23/11:30pm 20.4 18.7 8.4 46 6.4 SSE 7 9 4 5 1016.2 1014.3 0.0
23/11:00pm 20.8 19.1 8.4 45 6.6 SE 7 9 4 5 1016.5 1014.5 0.0
23/10:30pm 20.8 19.1 8.4 45 6.6 ESE 7 9 4 5 1016.5 1014.5 0.0
23/10:00pm 22.2 19.8 7.2 38 7.9 SE 9 11 5 6 1016.5 1014.5 0.0
23/09:30pm 22.7 20.8 7.7 38 8.0 SE 7 7 4 4 1016.5 1014.5 0.0
23/09:00pm 24.5 21.9 6.3 31 9.6 S 9 11 5 6 1016.3 1014.4 0.0
23/08:30pm 25.3 22.7 6.0 29 10.2 SSW 9 9 5 5 1016.2 1014.3 0.0
23/08:00pm 26.5 23.0 5.5 26 11.0 SW 13 17 7 9 1015.9 1014.0 0.0
23/07:30pm 26.7 24.3 7.2 29 10.6 SW 9 13 5 7 1015.6 1013.7 0.0
23/07:00pm 27.6 25.1 6.4 26 11.4 SW 9 11 5 6 1015.3 1013.4 0.0
23/06:30pm 28.4 25.0 5.9 24 12.0 SW 13 17 7 9 1014.8 1012.8 0.0
23/06:00pm 29.2 25.3 5.3 22 12.7 WSW 15 20 8 11 1014.4 1012.4 0.0
23/05:30pm 29.8 24.8 3.7 19 13.6 W 19 24 10 13 1013.8 1011.9 0.0
23/05:00pm 30.7 25.9 4.4 19 13.9 W 19 26 10 14 1013.5 1011.6 0.0
23/04:30pm 30.9 25.9 3.8 18 14.2 W 19 24 10 13 1013.3 1011.4 0.0
23/04:00pm 31.3 26.0 4.9 19 14.1 W 22 33 12 18 1013.2 1011.3 0.0
23/03:30pm 31.7 27.6 6.0 20 14.0 W 17 30 9 16 1013.1 1011.1 0.0
23/03:00pm 31.6 26.8 7.3 22 13.5 WNW 22 37 12 20 1013.3 1011.4 0.0
23/02:30pm 31.8 27.4 7.5 22 13.6 WSW 20 33 11 18 1013.3 1011.4 0.0
23/02:00pm 30.8 26.7 8.5 25 12.6 W 20 32 11 17 1013.5 1011.6 0.0
23/01:30pm 30.0 27.7 9.0 27 11.9 SW 11 20 6 11 1013.8 1011.9 0.0
23/01:00pm 30.0 27.4 9.5 28 11.7 WNW 13 17 7 9 1014.2 1012.2 0.0
23/12:30pm 29.3 26.9 9.9 30 11.1 SW 13 26 7 14 1014.6 1012.6 0.0
23/12:00pm 29.1 26.0 10.3 31 10.8 W 17 26 9 14 1015.0 1013.0 0.0
23/11:30am 28.3 25.9 10.0 32 10.5 SW 13 20 7 11 1015.4 1013.5 0.0
23/11:00am 27.4 24.5 9.7 33 10.0 SSW 15 20 8 11 1015.7 1013.8 0.0
23/10:30am 26.8 23.1 10.1 35 9.5 SW 20 28 11 15 1016.2 1014.3 0.0
23/10:00am 25.9 22.1 9.7 36 9.1 SW 20 32 11 17 1016.3 1014.4 0.0
23/09:30am 26.1 21.6 9.9 36 9.2 SW 24 32 13 17 1016.6 1014.6 0.0
23/09:00am 25.6 22.1 10.2 38 8.7 SSW 19 28 10 15 1016.6 1014.6 0.0
23/08:30am 24.8 20.6 9.9 39 8.4 SSW 22 30 12 16 1016.6 1014.6 0.0
23/08:00am 23.8 19.5 9.4 40 8.0 SSW 22 28 12 15 1016.7 1014.7 0.0
23/07:30am 24.2 20.4 9.0 38 8.4 SSW 19 24 10 13 1016.6 1014.6 0.0
23/07:00am 23.8 19.8 8.2 37 8.5 SW 19 24 10 13 1016.1 1014.2 0.0
23/06:30am 23.3 20.7 7.8 37 8.3 SW 11 13 6 7 1016.1 1014.2 0.0
23/06:00am 22.1 20.2 8.9 43 7.2 W 9 17 5 9 1015.8 1013.9 0.0
23/05:30am 20.8 20.2 9.1 47 6.3 NW 2 6 1 3 1015.7 1013.8 0.0
23/05:00am 22.5 20.7 7.9 39 7.8 WNW 7 7 4 4 1014.9 1012.9 0.0
23/04:30am 23.8 21.1 7.4 35 8.8 WSW 11 13 6 7 1014.8 1012.8 0.0
23/04:00am 24.9 21.6 6.6 31 9.7 N 13 17 7 9 1014.7 1012.7 0.0
23/03:30am 26.3 22.2 6.3 28 10.6 WNW 17 20 9 11 1015.0 1013.0 0.0
23/03:00am 25.9 23.4 6.5 29 10.3 NNW 9 19 5 10 1014.4 1012.4 0.0

Other Formats:

Comma delimited format used in spreadsheet applications
http://www.bom.gov.au/fwo/IDW60801/IDW60801.94449.axf

JavaScript Object Notation format (JSON) in row-major order
http://www.bom.gov.au/fwo/IDW60801/IDW60801.94449.json